sensor_id;sensor_type;location;lat;lon;timestamp;P1;durP1;ratioP1;P2;durP2;ratioP2
17818;SDS011;9034;50.284;19.310;2023-05-25T00:00:25;12.25;;;9.68;;
17818;SDS011;9034;50.284;19.310;2023-05-25T00:01:29;11.00;;;9.07;;
17818;SDS011;9034;50.284;19.310;2023-05-25T00:02:35;13.35;;;9.48;;
17818;SDS011;9034;50.284;19.310;2023-05-25T00:03:38;12.35;;;9.32;;
17818;SDS011;9034;50.284;19.310;2023-05-25T00:04:40;15.10;;;10.88;;
17818;SDS011;9034;50.284;19.310;2023-05-25T00:05:43;11.43;;;9.85;;
17818;SDS011;9034;50.284;19.310;2023-05-25T00:06:46;13.85;;;10.05;;
17818;SDS011;9034;50.284;19.310;2023-05-25T00:07:51;13.68;;;9.57;;
17818;SDS011;9034;50.284;19.310;2023-05-25T00:08:56;12.13;;;10.05;;
17818;SDS011;9034;50.284;19.310;2023-05-25T00:10:01;12.82;;;9.73;;
17818;SDS011;9034;50.284;19.310;2023-05-25T00:11:03;12.50;;;10.13;;
17818;SDS011;9034;50.284;19.310;2023-05-25T00:12:07;15.40;;;10.38;;
17818;SDS011;9034;50.284;19.310;2023-05-25T00:13:11;13.40;;;9.25;;
17818;SDS011;9034;50.284;19.310;2023-05-25T00:14:13;13.00;;;9.95;;
17818;SDS011;9034;50.284;19.310;2023-05-25T00:15:15;11.18;;;9.07;;
17818;SDS011;9034;50.284;19.310;2023-05-25T00:16:18;11.23;;;8.85;;
17818;SDS011;9034;50.284;19.310;2023-05-25T00:17:20;14.75;;;9.80;;
17818;SDS011;9034;50.284;19.310;2023-05-25T00:18:24;13.05;;;9.32;;
17818;SDS011;9034;50.284;19.310;2023-05-25T00:19:27;15.98;;;10.40;;
17818;SDS011;9034;50.284;19.310;2023-05-25T00:20:33;14.40;;;11.18;;
17818;SDS011;9034;50.284;19.310;2023-05-25T00:21:37;14.25;;;10.35;;
17818;SDS011;9034;50.284;19.310;2023-05-25T00:22:41;13.57;;;10.43;;
17818;SDS011;9034;50.284;19.310;2023-05-25T00:23:46;13.55;;;9.80;;
17818;SDS011;9034;50.284;19.310;2023-05-25T00:24:49;16.75;;;10.35;;
17818;SDS011;9034;50.284;19.310;2023-05-25T00:25:52;13.75;;;10.85;;
17818;SDS011;9034;50.284;19.310;2023-05-25T00:26:57;13.57;;;10.60;;
17818;SDS011;9034;50.284;19.310;2023-05-25T00:28:00;11.13;;;9.93;;
17818;SDS011;9034;50.284;19.310;2023-05-25T00:29:04;14.30;;;10.10;;
17818;SDS011;9034;50.284;19.310;2023-05-25T00:30:07;14.25;;;10.07;;
17818;SDS011;9034;50.284;19.310;2023-05-25T00:31:11;13.93;;;9.60;;
17818;SDS011;9034;50.284;19.310;2023-05-25T00:32:13;12.50;;;9.70;;
17818;SDS011;9034;50.284;19.310;2023-05-25T00:33:16;11.80;;;9.27;;
17818;SDS011;9034;50.284;19.310;2023-05-25T00:34:18;12.63;;;10.25;;
17818;SDS011;9034;50.284;19.310;2023-05-25T00:35:22;14.65;;;10.25;;
17818;SDS011;9034;50.284;19.310;2023-05-25T00:36:24;15.45;;;10.52;;
17818;SDS011;9034;50.284;19.310;2023-05-25T00:37:27;11.63;;;10.05;;
17818;SDS011;9034;50.284;19.310;2023-05-25T00:38:29;12.30;;;9.45;;
17818;SDS011;9034;50.284;19.310;2023-05-25T00:39:32;12.10;;;9.80;;
17818;SDS011;9034;50.284;19.310;2023-05-25T00:40:34;13.43;;;9.45;;
17818;SDS011;9034;50.284;19.310;2023-05-25T00:41:38;13.55;;;9.48;;
17818;SDS011;9034;50.284;19.310;2023-05-25T00:42:44;12.65;;;9.50;;
17818;SDS011;9034;50.284;19.310;2023-05-25T00:43:48;12.98;;;10.02;;
17818;SDS011;9034;50.284;19.310;2023-05-25T00:44:50;15.38;;;9.98;;
17818;SDS011;9034;50.284;19.310;2023-05-25T00:45:54;14.10;;;10.82;;
17818;SDS011;9034;50.284;19.310;2023-05-25T00:46:56;11.88;;;9.65;;
17818;SDS011;9034;50.284;19.310;2023-05-25T00:47:59;14.65;;;10.43;;
17818;SDS011;9034;50.284;19.310;2023-05-25T00:49:01;13.98;;;10.77;;
17818;SDS011;9034;50.284;19.310;2023-05-25T00:50:05;16.00;;;11.23;;
17818;SDS011;9034;50.284;19.310;2023-05-25T00:51:09;13.93;;;10.38;;
17818;SDS011;9034;50.284;19.310;2023-05-25T00:52:12;16.13;;;10.90;;
17818;SDS011;9034;50.284;19.310;2023-05-25T00:53:17;16.48;;;11.68;;
17818;SDS011;9034;50.284;19.310;2023-05-25T00:54:20;13.82;;;11.05;;
17818;SDS011;9034;50.284;19.310;2023-05-25T00:55:24;12.25;;;10.57;;
17818;SDS011;9034;50.284;19.310;2023-05-25T00:56:31;14.75;;;11.15;;
17818;SDS011;9034;50.284;19.310;2023-05-25T00:57:37;14.90;;;11.88;;
17818;SDS011;9034;50.284;19.310;2023-05-25T00:58:46;14.55;;;11.73;;
17818;SDS011;9034;50.284;19.310;2023-05-25T00:59:52;13.40;;;11.65;;
17818;SDS011;9034;50.284;19.310;2023-05-25T01:00:56;16.55;;;12.18;;
17818;SDS011;9034;50.284;19.310;2023-05-25T01:02:02;15.95;;;11.88;;
17818;SDS011;9034;50.284;19.310;2023-05-25T01:03:10;15.32;;;11.48;;
17818;SDS011;9034;50.284;19.310;2023-05-25T01:04:14;14.00;;;11.43;;
17818;SDS011;9034;50.284;19.310;2023-05-25T01:05:22;14.05;;;11.77;;
17818;SDS011;9034;50.284;19.310;2023-05-25T01:06:31;15.23;;;11.40;;
17818;SDS011;9034;50.284;19.310;2023-05-25T01:07:34;19.02;;;10.93;;
17818;SDS011;9034;50.284;19.310;2023-05-25T01:08:37;15.07;;;11.02;;
17818;SDS011;9034;50.284;19.310;2023-05-25T01:09:43;12.60;;;10.98;;
17818;SDS011;9034;50.284;19.310;2023-05-25T01:10:46;14.23;;;10.95;;
17818;SDS011;9034;50.284;19.310;2023-05-25T01:11:50;14.07;;;10.30;;
17818;SDS011;9034;50.284;19.310;2023-05-25T01:12:53;13.15;;;10.75;;
17818;SDS011;9034;50.284;19.310;2023-05-25T01:13:57;13.63;;;11.18;;
17818;SDS011;9034;50.284;19.310;2023-05-25T01:15:00;13.13;;;11.13;;
17818;SDS011;9034;50.284;19.310;2023-05-25T01:16:06;14.82;;;10.45;;
17818;SDS011;9034;50.284;19.310;2023-05-25T01:17:09;18.20;;;12.30;;
17818;SDS011;9034;50.284;19.310;2023-05-25T01:18:13;18.55;;;11.65;;
17818;SDS011;9034;50.284;19.310;2023-05-25T01:19:15;17.02;;;11.48;;
17818;SDS011;9034;50.284;19.310;2023-05-25T01:20:21;13.98;;;11.48;;
17818;SDS011;9034;50.284;19.310;2023-05-25T01:21:26;16.83;;;11.90;;
17818;SDS011;9034;50.284;19.310;2023-05-25T01:22:34;14.43;;;12.00;;
17818;SDS011;9034;50.284;19.310;2023-05-25T01:23:41;16.38;;;11.43;;
17818;SDS011;9034;50.284;19.310;2023-05-25T01:24:47;15.45;;;10.73;;
17818;SDS011;9034;50.284;19.310;2023-05-25T01:25:52;15.57;;;10.65;;
17818;SDS011;9034;50.284;19.310;2023-05-25T01:27:08;15.68;;;10.77;;
17818;SDS011;9034;50.284;19.310;2023-05-25T01:28:16;13.27;;;11.68;;
17818;SDS011;9034;50.284;19.310;2023-05-25T01:29:23;15.52;;;11.20;;
17818;SDS011;9034;50.284;19.310;2023-05-25T01:30:26;15.13;;;11.90;;
17818;SDS011;9034;50.284;19.310;2023-05-25T01:31:33;16.65;;;11.70;;
17818;SDS011;9034;50.284;19.310;2023-05-25T01:32:38;13.75;;;11.27;;
17818;SDS011;9034;50.284;19.310;2023-05-25T01:33:42;13.77;;;10.50;;
17818;SDS011;9034;50.284;19.310;2023-05-25T01:34:44;12.07;;;10.75;;
17818;SDS011;9034;50.284;19.310;2023-05-25T01:35:49;12.57;;;10.73;;
17818;SDS011;9034;50.284;19.310;2023-05-25T01:36:54;12.82;;;10.90;;
17818;SDS011;9034;50.284;19.310;2023-05-25T01:37:57;13.65;;;11.32;;
17818;SDS011;9034;50.284;19.310;2023-05-25T01:38:59;17.15;;;11.65;;
17818;SDS011;9034;50.284;19.310;2023-05-25T01:40:02;19.70;;;12.38;;
17818;SDS011;9034;50.284;19.310;2023-05-25T01:41:07;15.60;;;12.02;;
17818;SDS011;9034;50.284;19.310;2023-05-25T01:42:12;15.57;;;11.75;;
17818;SDS011;9034;50.284;19.310;2023-05-25T01:43:15;16.50;;;13.75;;
17818;SDS011;9034;50.284;19.310;2023-05-25T01:44:17;21.42;;;15.35;;
17818;SDS011;9034;50.284;19.310;2023-05-25T01:45:21;32.97;;;20.73;;
17818;SDS011;9034;50.284;19.310;2023-05-25T01:46:25;31.27;;;21.73;;
17818;SDS011;9034;50.284;19.310;2023-05-25T01:47:36;25.17;;;17.73;;
17818;SDS011;9034;50.284;19.310;2023-05-25T01:48:51;21.38;;;14.80;;
17818;SDS011;9034;50.284;19.310;2023-05-25T01:49:59;19.75;;;14.23;;
17818;SDS011;9034;50.284;19.310;2023-05-25T01:51:14;18.35;;;14.55;;
17818;SDS011;9034;50.284;19.310;2023-05-25T01:52:22;27.83;;;18.77;;
17818;SDS011;9034;50.284;19.310;2023-05-25T01:53:29;27.13;;;18.02;;
17818;SDS011;9034;50.284;19.310;2023-05-25T01:54:34;29.08;;;20.05;;
17818;SDS011;9034;50.284;19.310;2023-05-25T01:55:41;22.45;;;16.08;;
17818;SDS011;9034;50.284;19.310;2023-05-25T01:56:48;22.85;;;16.27;;
17818;SDS011;9034;50.284;19.310;2023-05-25T01:57:52;16.80;;;13.27;;
17818;SDS011;9034;50.284;19.310;2023-05-25T01:58:58;17.80;;;13.45;;
17818;SDS011;9034;50.284;19.310;2023-05-25T02:00:04;22.33;;;14.38;;
17818;SDS011;9034;50.284;19.310;2023-05-25T02:01:13;17.80;;;13.25;;
17818;SDS011;9034;50.284;19.310;2023-05-25T02:02:19;17.88;;;12.98;;
17818;SDS011;9034;50.284;19.310;2023-05-25T02:03:21;17.20;;;12.27;;
17818;SDS011;9034;50.284;19.310;2023-05-25T02:04:24;14.82;;;11.27;;
17818;SDS011;9034;50.284;19.310;2023-05-25T02:05:29;14.98;;;12.02;;
17818;SDS011;9034;50.284;19.310;2023-05-25T02:06:34;17.90;;;11.48;;
17818;SDS011;9034;50.284;19.310;2023-05-25T02:09:06;18.17;;;12.18;;
17818;SDS011;9034;50.284;19.310;2023-05-25T02:10:08;15.75;;;11.20;;
17818;SDS011;9034;50.284;19.310;2023-05-25T02:11:12;15.60;;;12.38;;
17818;SDS011;9034;50.284;19.310;2023-05-25T02:12:15;15.60;;;11.15;;
17818;SDS011;9034;50.284;19.310;2023-05-25T02:13:18;16.38;;;11.90;;
17818;SDS011;9034;50.284;19.310;2023-05-25T02:14:20;13.55;;;11.40;;
17818;SDS011;9034;50.284;19.310;2023-05-25T02:15:24;13.90;;;12.35;;
17818;SDS011;9034;50.284;19.310;2023-05-25T02:16:28;13.35;;;11.60;;
17818;SDS011;9034;50.284;19.310;2023-05-25T02:17:33;13.93;;;11.38;;
17818;SDS011;9034;50.284;19.310;2023-05-25T02:18:38;18.67;;;12.90;;
17818;SDS011;9034;50.284;19.310;2023-05-25T02:19:45;14.50;;;11.57;;
17818;SDS011;9034;50.284;19.310;2023-05-25T02:20:49;13.75;;;10.93;;
17818;SDS011;9034;50.284;19.310;2023-05-25T02:21:53;14.07;;;11.65;;
17818;SDS011;9034;50.284;19.310;2023-05-25T02:22:56;18.08;;;12.25;;
17818;SDS011;9034;50.284;19.310;2023-05-25T02:24:01;16.55;;;11.80;;
17818;SDS011;9034;50.284;19.310;2023-05-25T02:25:06;17.15;;;12.77;;
17818;SDS011;9034;50.284;19.310;2023-05-25T02:26:10;17.33;;;13.35;;
17818;SDS011;9034;50.284;19.310;2023-05-25T02:27:12;15.00;;;13.10;;
17818;SDS011;9034;50.284;19.310;2023-05-25T02:28:16;15.77;;;13.60;;
17818;SDS011;9034;50.284;19.310;2023-05-25T02:29:18;17.40;;;12.82;;
17818;SDS011;9034;50.284;19.310;2023-05-25T02:30:21;17.48;;;13.10;;
17818;SDS011;9034;50.284;19.310;2023-05-25T02:31:28;17.30;;;13.13;;
17818;SDS011;9034;50.284;19.310;2023-05-25T02:32:32;16.02;;;12.52;;
17818;SDS011;9034;50.284;19.310;2023-05-25T02:33:35;17.15;;;12.80;;
17818;SDS011;9034;50.284;19.310;2023-05-25T02:34:39;17.42;;;13.05;;
17818;SDS011;9034;50.284;19.310;2023-05-25T02:35:43;19.02;;;13.80;;
17818;SDS011;9034;50.284;19.310;2023-05-25T02:36:45;16.58;;;13.60;;
17818;SDS011;9034;50.284;19.310;2023-05-25T02:37:49;15.00;;;12.30;;
17818;SDS011;9034;50.284;19.310;2023-05-25T02:38:51;18.15;;;13.88;;
17818;SDS011;9034;50.284;19.310;2023-05-25T02:39:56;18.13;;;13.18;;
17818;SDS011;9034;50.284;19.310;2023-05-25T02:40:59;22.70;;;14.02;;
17818;SDS011;9034;50.284;19.310;2023-05-25T02:42:02;19.00;;;14.18;;
17818;SDS011;9034;50.284;19.310;2023-05-25T02:43:04;16.45;;;13.35;;
17818;SDS011;9034;50.284;19.310;2023-05-25T02:44:08;17.70;;;13.25;;
17818;SDS011;9034;50.284;19.310;2023-05-25T02:45:10;16.80;;;14.25;;
17818;SDS011;9034;50.284;19.310;2023-05-25T02:46:14;17.05;;;13.40;;
17818;SDS011;9034;50.284;19.310;2023-05-25T02:47:17;15.63;;;12.18;;
17818;SDS011;9034;50.284;19.310;2023-05-25T02:48:21;16.90;;;13.15;;
17818;SDS011;9034;50.284;19.310;2023-05-25T02:49:23;17.90;;;14.07;;
17818;SDS011;9034;50.284;19.310;2023-05-25T02:50:26;17.75;;;13.05;;
17818;SDS011;9034;50.284;19.310;2023-05-25T02:51:31;17.23;;;14.20;;
17818;SDS011;9034;50.284;19.310;2023-05-25T02:52:34;17.40;;;14.02;;
17818;SDS011;9034;50.284;19.310;2023-05-25T02:53:37;16.80;;;13.65;;
17818;SDS011;9034;50.284;19.310;2023-05-25T02:54:40;16.85;;;14.57;;
17818;SDS011;9034;50.284;19.310;2023-05-25T02:55:46;19.08;;;14.57;;
17818;SDS011;9034;50.284;19.310;2023-05-25T02:56:53;17.88;;;13.90;;
17818;SDS011;9034;50.284;19.310;2023-05-25T02:57:55;21.20;;;15.07;;
17818;SDS011;9034;50.284;19.310;2023-05-25T02:59:23;19.85;;;15.07;;
17818;SDS011;9034;50.284;19.310;2023-05-25T03:00:26;19.25;;;14.75;;
17818;SDS011;9034;50.284;19.310;2023-05-25T03:01:29;19.92;;;15.65;;
17818;SDS011;9034;50.284;19.310;2023-05-25T03:02:34;18.83;;;13.60;;
17818;SDS011;9034;50.284;19.310;2023-05-25T03:03:36;19.98;;;14.32;;
17818;SDS011;9034;50.284;19.310;2023-05-25T03:04:41;16.95;;;13.98;;
17818;SDS011;9034;50.284;19.310;2023-05-25T03:05:43;18.38;;;15.10;;
17818;SDS011;9034;50.284;19.310;2023-05-25T03:06:47;17.15;;;14.88;;
17818;SDS011;9034;50.284;19.310;2023-05-25T03:07:52;20.77;;;14.55;;
17818;SDS011;9034;50.284;19.310;2023-05-25T03:08:55;19.73;;;14.05;;
17818;SDS011;9034;50.284;19.310;2023-05-25T03:09:57;21.00;;;16.40;;
17818;SDS011;9034;50.284;19.310;2023-05-25T03:11:02;20.45;;;15.05;;
17818;SDS011;9034;50.284;19.310;2023-05-25T03:12:05;20.83;;;15.57;;
17818;SDS011;9034;50.284;19.310;2023-05-25T03:13:09;16.88;;;13.95;;
17818;SDS011;9034;50.284;19.310;2023-05-25T03:14:11;18.02;;;13.90;;
17818;SDS011;9034;50.284;19.310;2023-05-25T03:15:17;19.13;;;13.98;;
17818;SDS011;9034;50.284;19.310;2023-05-25T03:16:19;19.63;;;14.63;;
17818;SDS011;9034;50.284;19.310;2023-05-25T03:17:24;20.98;;;14.27;;
17818;SDS011;9034;50.284;19.310;2023-05-25T03:18:27;16.42;;;13.77;;
17818;SDS011;9034;50.284;19.310;2023-05-25T03:19:31;19.63;;;14.32;;
17818;SDS011;9034;50.284;19.310;2023-05-25T03:20:34;24.45;;;15.27;;
17818;SDS011;9034;50.284;19.310;2023-05-25T03:21:37;18.63;;;14.75;;
17818;SDS011;9034;50.284;19.310;2023-05-25T03:22:40;19.20;;;13.77;;
17818;SDS011;9034;50.284;19.310;2023-05-25T03:23:43;18.60;;;14.13;;
17818;SDS011;9034;50.284;19.310;2023-05-25T03:24:46;17.77;;;13.82;;
17818;SDS011;9034;50.284;19.310;2023-05-25T03:25:51;15.27;;;12.52;;
17818;SDS011;9034;50.284;19.310;2023-05-25T03:26:56;17.15;;;13.38;;
17818;SDS011;9034;50.284;19.310;2023-05-25T03:27:59;17.15;;;13.38;;
17818;SDS011;9034;50.284;19.310;2023-05-25T03:29:02;16.25;;;13.50;;
17818;SDS011;9034;50.284;19.310;2023-05-25T03:30:07;18.70;;;14.15;;
17818;SDS011;9034;50.284;19.310;2023-05-25T03:31:10;18.88;;;12.80;;
17818;SDS011;9034;50.284;19.310;2023-05-25T03:32:14;22.55;;;14.07;;
17818;SDS011;9034;50.284;19.310;2023-05-25T03:33:17;15.85;;;12.60;;
17818;SDS011;9034;50.284;19.310;2023-05-25T03:34:22;17.30;;;14.13;;
17818;SDS011;9034;50.284;19.310;2023-05-25T03:35:25;19.73;;;14.60;;
17818;SDS011;9034;50.284;19.310;2023-05-25T03:36:28;18.23;;;13.68;;
17818;SDS011;9034;50.284;19.310;2023-05-25T03:37:34;17.83;;;13.48;;
17818;SDS011;9034;50.284;19.310;2023-05-25T03:38:36;17.40;;;13.82;;
17818;SDS011;9034;50.284;19.310;2023-05-25T03:39:40;18.25;;;13.80;;
17818;SDS011;9034;50.284;19.310;2023-05-25T03:40:42;18.40;;;13.18;;
17818;SDS011;9034;50.284;19.310;2023-05-25T03:41:45;17.13;;;13.18;;
17818;SDS011;9034;50.284;19.310;2023-05-25T03:42:49;15.70;;;13.43;;
17818;SDS011;9034;50.284;19.310;2023-05-25T03:43:52;16.13;;;12.30;;
17818;SDS011;9034;50.284;19.310;2023-05-25T03:44:55;15.57;;;13.32;;
17818;SDS011;9034;50.284;19.310;2023-05-25T03:45:58;15.95;;;13.70;;
17818;SDS011;9034;50.284;19.310;2023-05-25T03:47:00;16.27;;;13.38;;
17818;SDS011;9034;50.284;19.310;2023-05-25T03:48:05;17.58;;;13.63;;
17818;SDS011;9034;50.284;19.310;2023-05-25T03:49:07;18.20;;;13.88;;
17818;SDS011;9034;50.284;19.310;2023-05-25T03:50:14;19.17;;;13.95;;
17818;SDS011;9034;50.284;19.310;2023-05-25T03:51:17;15.93;;;13.70;;
17818;SDS011;9034;50.284;19.310;2023-05-25T03:52:20;16.08;;;12.93;;
17818;SDS011;9034;50.284;19.310;2023-05-25T03:53:22;15.98;;;13.38;;
17818;SDS011;9034;50.284;19.310;2023-05-25T03:54:26;15.15;;;12.85;;
17818;SDS011;9034;50.284;19.310;2023-05-25T03:55:28;16.23;;;12.60;;
17818;SDS011;9034;50.284;19.310;2023-05-25T03:56:33;16.65;;;12.77;;
17818;SDS011;9034;50.284;19.310;2023-05-25T03:57:35;15.88;;;12.63;;
17818;SDS011;9034;50.284;19.310;2023-05-25T03:58:41;14.82;;;12.27;;
17818;SDS011;9034;50.284;19.310;2023-05-25T03:59:43;14.38;;;12.60;;
17818;SDS011;9034;50.284;19.310;2023-05-25T04:00:47;17.27;;;13.60;;
17818;SDS011;9034;50.284;19.310;2023-05-25T04:01:51;17.23;;;12.65;;
17818;SDS011;9034;50.284;19.310;2023-05-25T04:02:54;14.23;;;12.70;;
17818;SDS011;9034;50.284;19.310;2023-05-25T04:03:59;15.55;;;13.27;;
17818;SDS011;9034;50.284;19.310;2023-05-25T04:05:02;17.10;;;13.23;;
17818;SDS011;9034;50.284;19.310;2023-05-25T04:06:06;15.25;;;12.43;;
17818;SDS011;9034;50.284;19.310;2023-05-25T04:07:08;16.23;;;12.27;;
17818;SDS011;9034;50.284;19.310;2023-05-25T04:08:12;17.45;;;13.38;;
17818;SDS011;9034;50.284;19.310;2023-05-25T04:09:18;16.08;;;12.65;;
17818;SDS011;9034;50.284;19.310;2023-05-25T04:10:23;15.25;;;12.77;;
17818;SDS011;9034;50.284;19.310;2023-05-25T04:11:25;18.35;;;13.35;;
17818;SDS011;9034;50.284;19.310;2023-05-25T04:12:29;15.27;;;11.60;;
17818;SDS011;9034;50.284;19.310;2023-05-25T04:13:33;15.40;;;11.88;;
17818;SDS011;9034;50.284;19.310;2023-05-25T04:14:39;14.93;;;12.35;;
17818;SDS011;9034;50.284;19.310;2023-05-25T04:15:44;15.27;;;12.00;;
17818;SDS011;9034;50.284;19.310;2023-05-25T04:16:51;17.15;;;12.57;;
17818;SDS011;9034;50.284;19.310;2023-05-25T04:17:54;16.15;;;12.25;;
17818;SDS011;9034;50.284;19.310;2023-05-25T04:18:56;15.98;;;11.75;;
17818;SDS011;9034;50.284;19.310;2023-05-25T04:20:00;17.05;;;11.73;;
17818;SDS011;9034;50.284;19.310;2023-05-25T04:21:03;16.85;;;13.45;;
17818;SDS011;9034;50.284;19.310;2023-05-25T04:22:06;19.70;;;13.00;;
17818;SDS011;9034;50.284;19.310;2023-05-25T04:23:09;19.50;;;12.57;;
17818;SDS011;9034;50.284;19.310;2023-05-25T04:24:14;15.05;;;12.25;;
17818;SDS011;9034;50.284;19.310;2023-05-25T04:25:17;13.50;;;11.68;;
17818;SDS011;9034;50.284;19.310;2023-05-25T04:26:20;15.95;;;11.73;;
17818;SDS011;9034;50.284;19.310;2023-05-25T04:27:27;14.18;;;11.23;;
17818;SDS011;9034;50.284;19.310;2023-05-25T04:28:29;15.40;;;11.60;;
17818;SDS011;9034;50.284;19.310;2023-05-25T04:29:42;13.45;;;11.80;;
17818;SDS011;9034;50.284;19.310;2023-05-25T04:31:03;14.48;;;11.27;;
17818;SDS011;9034;50.284;19.310;2023-05-25T04:32:27;15.85;;;11.35;;
17818;SDS011;9034;50.284;19.310;2023-05-25T04:33:55;13.02;;;10.95;;
17818;SDS011;9034;50.284;19.310;2023-05-25T04:35:05;13.45;;;11.02;;
17818;SDS011;9034;50.284;19.310;2023-05-25T04:36:15;13.02;;;10.55;;
17818;SDS011;9034;50.284;19.310;2023-05-25T04:37:19;13.55;;;10.93;;
17818;SDS011;9034;50.284;19.310;2023-05-25T04:38:22;20.00;;;10.38;;
17818;SDS011;9034;50.284;19.310;2023-05-25T04:39:26;19.90;;;12.07;;
17818;SDS011;9034;50.284;19.310;2023-05-25T04:40:31;14.90;;;10.77;;
17818;SDS011;9034;50.284;19.310;2023-05-25T04:41:34;12.13;;;9.70;;
17818;SDS011;9034;50.284;19.310;2023-05-25T04:42:42;11.07;;;9.93;;
17818;SDS011;9034;50.284;19.310;2023-05-25T04:43:45;11.38;;;10.15;;
17818;SDS011;9034;50.284;19.310;2023-05-25T04:45:09;11.85;;;9.98;;
17818;SDS011;9034;50.284;19.310;2023-05-25T04:46:12;11.15;;;9.98;;
17818;SDS011;9034;50.284;19.310;2023-05-25T04:47:18;13.32;;;9.60;;
17818;SDS011;9034;50.284;19.310;2023-05-25T04:48:21;12.15;;;9.90;;
17818;SDS011;9034;50.284;19.310;2023-05-25T04:49:25;12.02;;;10.75;;
17818;SDS011;9034;50.284;19.310;2023-05-25T04:50:28;13.60;;;10.48;;
17818;SDS011;9034;50.284;19.310;2023-05-25T04:51:30;12.82;;;10.73;;
17818;SDS011;9034;50.284;19.310;2023-05-25T04:52:34;11.65;;;9.82;;
17818;SDS011;9034;50.284;19.310;2023-05-25T04:53:36;12.85;;;10.13;;
17818;SDS011;9034;50.284;19.310;2023-05-25T04:54:40;13.82;;;9.85;;
17818;SDS011;9034;50.284;19.310;2023-05-25T04:55:42;12.13;;;10.02;;
17818;SDS011;9034;50.284;19.310;2023-05-25T04:56:46;11.77;;;10.13;;
17818;SDS011;9034;50.284;19.310;2023-05-25T04:57:49;11.05;;;9.52;;
17818;SDS011;9034;50.284;19.310;2023-05-25T04:58:53;11.73;;;9.95;;
17818;SDS011;9034;50.284;19.310;2023-05-25T04:59:57;10.93;;;9.73;;
17818;SDS011;9034;50.284;19.310;2023-05-25T05:01:01;11.82;;;10.40;;
17818;SDS011;9034;50.284;19.310;2023-05-25T05:02:04;11.45;;;9.80;;
17818;SDS011;9034;50.284;19.310;2023-05-25T05:03:09;13.02;;;9.63;;
17818;SDS011;9034;50.284;19.310;2023-05-25T05:04:12;12.80;;;10.43;;
17818;SDS011;9034;50.284;19.310;2023-05-25T05:05:17;14.07;;;11.38;;
17818;SDS011;9034;50.284;19.310;2023-05-25T05:06:21;11.75;;;10.32;;
17818;SDS011;9034;50.284;19.310;2023-05-25T05:07:23;12.80;;;9.60;;
17818;SDS011;9034;50.284;19.310;2023-05-25T05:08:26;13.07;;;10.10;;
17818;SDS011;9034;50.284;19.310;2023-05-25T05:09:29;12.90;;;10.07;;
17818;SDS011;9034;50.284;19.310;2023-05-25T05:10:34;11.23;;;10.05;;
17818;SDS011;9034;50.284;19.310;2023-05-25T05:11:37;13.27;;;10.07;;
17818;SDS011;9034;50.284;19.310;2023-05-25T05:12:41;12.52;;;11.23;;
17818;SDS011;9034;50.284;19.310;2023-05-25T05:13:43;12.18;;;10.10;;
17818;SDS011;9034;50.284;19.310;2023-05-25T05:14:47;12.80;;;10.55;;
17818;SDS011;9034;50.284;19.310;2023-05-25T05:15:50;12.68;;;10.68;;
17818;SDS011;9034;50.284;19.310;2023-05-25T05:16:56;14.32;;;11.20;;
17818;SDS011;9034;50.284;19.310;2023-05-25T05:17:58;15.98;;;10.48;;
17818;SDS011;9034;50.284;19.310;2023-05-25T05:19:02;13.65;;;10.52;;
17818;SDS011;9034;50.284;19.310;2023-05-25T05:20:06;14.10;;;10.32;;
17818;SDS011;9034;50.284;19.310;2023-05-25T05:21:10;10.40;;;9.27;;
17818;SDS011;9034;50.284;19.310;2023-05-25T05:22:13;14.32;;;11.50;;
17818;SDS011;9034;50.284;19.310;2023-05-25T05:23:18;12.95;;;11.63;;
17818;SDS011;9034;50.284;19.310;2023-05-25T05:24:20;15.57;;;12.00;;
17818;SDS011;9034;50.284;19.310;2023-05-25T05:25:23;12.55;;;10.70;;
17818;SDS011;9034;50.284;19.310;2023-05-25T05:26:26;13.27;;;11.88;;
17818;SDS011;9034;50.284;19.310;2023-05-25T05:27:28;13.10;;;11.27;;
17818;SDS011;9034;50.284;19.310;2023-05-25T05:28:38;12.95;;;11.07;;
17818;SDS011;9034;50.284;19.310;2023-05-25T05:29:41;13.23;;;11.23;;
17818;SDS011;9034;50.284;19.310;2023-05-25T05:30:44;13.07;;;11.25;;
17818;SDS011;9034;50.284;19.310;2023-05-25T05:31:48;14.15;;;11.82;;
17818;SDS011;9034;50.284;19.310;2023-05-25T05:32:52;12.73;;;11.32;;
17818;SDS011;9034;50.284;19.310;2023-05-25T05:33:59;15.00;;;12.20;;
17818;SDS011;9034;50.284;19.310;2023-05-25T05:35:04;14.48;;;12.15;;
17818;SDS011;9034;50.284;19.310;2023-05-25T05:36:19;14.38;;;12.32;;
17818;SDS011;9034;50.284;19.310;2023-05-25T05:37:23;13.25;;;11.82;;
17818;SDS011;9034;50.284;19.310;2023-05-25T05:38:25;13.70;;;11.55;;
17818;SDS011;9034;50.284;19.310;2023-05-25T05:39:29;13.27;;;11.80;;
17818;SDS011;9034;50.284;19.310;2023-05-25T05:40:32;16.10;;;11.88;;
17818;SDS011;9034;50.284;19.310;2023-05-25T05:41:35;16.17;;;12.30;;
17818;SDS011;9034;50.284;19.310;2023-05-25T05:42:38;13.57;;;12.07;;
17818;SDS011;9034;50.284;19.310;2023-05-25T05:43:43;16.15;;;12.20;;
17818;SDS011;9034;50.284;19.310;2023-05-25T05:44:46;18.80;;;11.77;;
17818;SDS011;9034;50.284;19.310;2023-05-25T05:45:50;13.63;;;11.93;;
17818;SDS011;9034;50.284;19.310;2023-05-25T05:46:52;13.32;;;11.57;;
17818;SDS011;9034;50.284;19.310;2023-05-25T05:48:03;14.52;;;11.63;;
17818;SDS011;9034;50.284;19.310;2023-05-25T05:49:10;17.08;;;11.48;;
17818;SDS011;9034;50.284;19.310;2023-05-25T05:50:13;14.38;;;11.52;;
17818;SDS011;9034;50.284;19.310;2023-05-25T05:51:16;13.82;;;11.52;;
17818;SDS011;9034;50.284;19.310;2023-05-25T05:52:18;14.93;;;11.18;;
17818;SDS011;9034;50.284;19.310;2023-05-25T05:53:21;12.35;;;10.65;;
17818;SDS011;9034;50.284;19.310;2023-05-25T05:54:24;13.50;;;11.38;;
17818;SDS011;9034;50.284;19.310;2023-05-25T05:55:30;15.32;;;11.00;;
17818;SDS011;9034;50.284;19.310;2023-05-25T05:56:32;13.18;;;11.63;;
17818;SDS011;9034;50.284;19.310;2023-05-25T05:57:36;12.73;;;11.40;;
17818;SDS011;9034;50.284;19.310;2023-05-25T05:58:38;13.07;;;10.90;;
17818;SDS011;9034;50.284;19.310;2023-05-25T05:59:41;13.93;;;10.70;;
17818;SDS011;9034;50.284;19.310;2023-05-25T06:00:44;12.27;;;10.77;;
17818;SDS011;9034;50.284;19.310;2023-05-25T06:01:47;13.18;;;11.27;;
17818;SDS011;9034;50.284;19.310;2023-05-25T06:02:50;13.07;;;10.55;;
17818;SDS011;9034;50.284;19.310;2023-05-25T06:03:57;14.75;;;12.40;;
17818;SDS011;9034;50.284;19.310;2023-05-25T06:05:00;16.77;;;12.40;;
17818;SDS011;9034;50.284;19.310;2023-05-25T06:06:03;14.07;;;11.07;;
17818;SDS011;9034;50.284;19.310;2023-05-25T06:07:07;12.90;;;10.30;;
17818;SDS011;9034;50.284;19.310;2023-05-25T06:08:10;14.07;;;10.38;;
17818;SDS011;9034;50.284;19.310;2023-05-25T06:09:12;13.57;;;11.00;;
17818;SDS011;9034;50.284;19.310;2023-05-25T06:10:16;12.85;;;10.40;;
17818;SDS011;9034;50.284;19.310;2023-05-25T06:11:19;16.08;;;11.48;;
17818;SDS011;9034;50.284;19.310;2023-05-25T06:12:22;15.48;;;11.50;;
17818;SDS011;9034;50.284;19.310;2023-05-25T06:13:25;16.50;;;10.68;;
17818;SDS011;9034;50.284;19.310;2023-05-25T06:14:29;14.38;;;12.05;;
17818;SDS011;9034;50.284;19.310;2023-05-25T06:15:35;15.65;;;11.45;;
17818;SDS011;9034;50.284;19.310;2023-05-25T06:16:43;18.00;;;12.43;;
17818;SDS011;9034;50.284;19.310;2023-05-25T06:17:46;13.30;;;11.02;;
17818;SDS011;9034;50.284;19.310;2023-05-25T06:18:50;15.70;;;11.50;;